Mengzi, China
Current Conditions -  °F | °C
As of 4:00 PM on Thursday 23 Oct 2014 (Local Time) from ZPPP Reporting Station
Few Clouds Few Clouds  
Wind Chill: 68°   Ceiling: Unl
Heat Index: 68°   Visibility: 6mi
Dew Point: 41°   Wind: 9mph
Humidity: 37%   Direction: 230°SW
Pressure: 30.21"   Gusts: NA
Location:  23.38°N, 103.38°E
Report Text: ZPPP 230800Z 23004MPS 200V260 9999 FEW026 20/05 Q1023 NOSIG
Loading
Personal Weather Stations






























Interactive Weather Map
Tropical Storm Tracking
New forecast layout! Learn more

10-Day Weather Forecast

Advertisements
Track Severe Weather on mobile